createdAt,value
2023-05-08T00:01:31.297Z,4.43
2023-05-08T00:03:58.718Z,3.70
2023-05-08T00:06:27.716Z,4.28
2023-05-08T00:08:55.696Z,4.07
2023-05-08T00:11:23.090Z,3.42
2023-05-08T00:13:50.320Z,4.00
2023-05-08T00:16:17.798Z,3.97
2023-05-08T00:18:45.093Z,4.40
2023-05-08T00:21:12.347Z,4.88
2023-05-08T00:23:39.603Z,4.45
2023-05-08T00:26:06.986Z,4.80
2023-05-08T00:28:34.229Z,4.45
2023-05-08T00:31:04.686Z,3.92
2023-05-08T00:33:31.912Z,4.20
2023-05-08T00:36:03.290Z,4.30
2023-05-08T00:38:31.698Z,3.97
2023-05-08T00:40:59.268Z,3.55
2023-05-08T00:43:28.488Z,4.25
2023-05-08T00:45:57.008Z,4.35
2023-05-08T00:48:25.426Z,4.13
2023-05-08T00:50:54.070Z,3.63
2023-05-08T00:53:23.095Z,3.35
2023-05-08T00:55:51.837Z,3.30
2023-05-08T00:58:22.987Z,3.70
2023-05-08T01:00:54.132Z,4.15
2023-05-08T01:03:23.436Z,3.63
2023-05-08T01:05:50.901Z,4.00
2023-05-08T01:08:18.097Z,3.50
2023-05-08T01:11:10.021Z,3.30
2023-05-08T01:13:42.508Z,2.80
2023-05-08T01:16:19.940Z,3.60
2023-05-08T01:19:02.565Z,3.70
2023-05-08T01:21:54.218Z,3.60
2023-05-08T01:24:42.074Z,3.97
2023-05-08T01:27:33.169Z,3.58
2023-05-08T01:30:40.207Z,3.78
2023-05-08T01:33:37.147Z,3.78
2023-05-08T01:36:33.430Z,2.92
2023-05-08T01:39:26.876Z,3.40
2023-05-08T01:42:08.597Z,3.47
2023-05-08T01:44:43.687Z,3.67
2023-05-08T01:47:12.234Z,4.07
2023-05-08T01:49:47.584Z,3.53
2023-05-08T01:52:37.590Z,3.65
2023-05-08T01:55:09.872Z,3.55
2023-05-08T01:57:41.806Z,3.38
2023-05-08T02:00:09.919Z,3.97
2023-05-08T02:02:40.877Z,4.47
2023-05-08T02:05:09.486Z,4.50
2023-05-08T02:07:39.942Z,4.25
2023-05-08T02:10:08.790Z,4.47
2023-05-08T02:12:37.939Z,4.55
2023-05-08T02:15:07.284Z,4.47
2023-05-08T02:17:36.590Z,4.32
2023-05-08T02:20:04.901Z,4.10
2023-05-08T02:22:33.662Z,4.32
2023-05-08T02:25:01.675Z,4.35
2023-05-08T02:27:30.332Z,4.78
2023-05-08T02:29:58.400Z,5.15
2023-05-08T02:32:26.984Z,4.43
2023-05-08T02:35:03.160Z,4.70
2023-05-08T02:37:32.556Z,4.60
2023-05-08T02:40:01.926Z,4.47
2023-05-08T02:42:30.807Z,4.30
2023-05-08T02:44:59.330Z,4.15
2023-05-08T02:47:34.222Z,4.60
2023-05-08T02:50:13.681Z,4.57
2023-05-08T02:53:09.477Z,4.90
2023-05-08T02:55:53.557Z,4.53
2023-05-08T02:58:29.417Z,4.68
2023-05-08T03:01:07.245Z,4.00
2023-05-08T03:03:49.870Z,4.75
2023-05-08T03:06:24.459Z,4.78
2023-05-08T03:08:52.496Z,4.85
2023-05-08T03:11:24.210Z,4.70
2023-05-08T03:13:55.930Z,4.95
2023-05-08T03:16:25.389Z,4.78
2023-05-08T03:19:05.412Z,4.20
2023-05-08T03:21:32.965Z,4.57
2023-05-08T03:24:02.015Z,5.65
2023-05-08T03:26:29.812Z,5.00
2023-05-08T03:28:58.473Z,4.93
2023-05-08T03:31:32.978Z,4.90
2023-05-08T03:34:02.281Z,4.63
2023-05-08T03:36:31.280Z,4.78
2023-05-08T03:39:00.222Z,5.25
2023-05-08T03:41:27.847Z,5.90
2023-05-08T03:43:57.072Z,5.28
2023-05-08T03:46:25.660Z,5.90
2023-05-08T03:48:54.357Z,4.78
2023-05-08T03:51:22.518Z,5.70
2023-05-08T03:53:50.412Z,5.65
2023-05-08T03:56:18.497Z,6.15
2023-05-08T03:59:02.989Z,5.97
2023-05-08T04:01:47.573Z,5.90
2023-05-08T04:04:24.384Z,5.90
2023-05-08T04:07:12.476Z,6.47
2023-05-08T04:09:58.181Z,5.55
2023-05-08T04:12:54.082Z,6.18
2023-05-08T04:15:29.700Z,5.78
2023-05-08T04:18:03.122Z,6.40
2023-05-08T04:20:32.519Z,5.95
2023-05-08T04:23:01.075Z,6.95
2023-05-08T04:25:29.428Z,5.78
2023-05-08T04:27:58.582Z,5.95
2023-05-08T04:30:26.343Z,5.93
2023-05-08T04:32:55.797Z,5.50
2023-05-08T04:35:23.604Z,5.80
2023-05-08T04:37:51.415Z,6.53
2023-05-08T04:40:18.781Z,5.15
2023-05-08T04:42:47.767Z,6.25
2023-05-08T04:45:17.756Z,6.40
2023-05-08T04:47:45.117Z,6.13
2023-05-08T04:50:12.665Z,6.05
2023-05-08T04:52:39.946Z,6.45
2023-05-08T04:55:08.077Z,5.60
2023-05-08T04:57:37.684Z,6.13
2023-05-08T05:00:06.389Z,5.90
2023-05-08T05:02:37.847Z,6.53
2023-05-08T05:05:06.513Z,6.47
2023-05-08T05:07:34.602Z,6.65
2023-05-08T05:10:02.260Z,6.60
2023-05-08T05:12:31.252Z,7.88
2023-05-08T05:14:58.773Z,7.25
2023-05-08T05:17:30.147Z,7.18
2023-05-08T05:19:57.562Z,7.57
2023-05-08T05:22:24.963Z,7.43
2023-05-08T05:24:53.048Z,6.88
2023-05-08T05:27:21.413Z,6.82
2023-05-08T05:29:49.961Z,7.53
2023-05-08T05:32:17.326Z,7.13
2023-05-08T05:34:45.094Z,7.82
2023-05-08T05:37:12.590Z,7.93
2023-05-08T05:39:39.881Z,7.05
2023-05-08T05:42:07.370Z,7.68
2023-05-08T05:44:34.688Z,6.65
2023-05-08T05:47:05.086Z,7.20
2023-05-08T05:49:32.804Z,7.20
2023-05-08T05:52:00.344Z,7.25
2023-05-08T05:54:27.621Z,8.52
2023-05-08T05:56:55.531Z,7.63
2023-05-08T05:59:22.898Z,7.78
2023-05-08T06:01:50.653Z,9.07
2023-05-08T06:04:18.789Z,7.38
2023-05-08T06:06:46.014Z,7.40
2023-05-08T06:09:15.949Z,7.80
2023-05-08T06:11:44.180Z,7.68
2023-05-08T06:14:11.552Z,9.10
2023-05-08T06:16:39.734Z,7.55
2023-05-08T06:19:08.072Z,7.68
2023-05-08T06:21:35.357Z,7.53
2023-05-08T06:24:03.167Z,7.65
2023-05-08T06:26:30.566Z,7.38
2023-05-08T06:28:57.840Z,7.38
2023-05-08T06:31:25.156Z,8.73
2023-05-08T06:33:52.461Z,7.30
2023-05-08T06:36:19.703Z,7.95
2023-05-08T06:38:47.068Z,8.82
2023-05-08T06:41:15.478Z,7.32
2023-05-08T06:43:42.797Z,7.53
2023-05-08T06:46:10.492Z,7.05
2023-05-08T06:48:37.848Z,7.28
2023-05-08T06:51:08.688Z,7.88
2023-05-08T06:53:35.934Z,7.15
2023-05-08T06:56:03.258Z,7.38
2023-05-08T06:58:32.149Z,7.50
2023-05-08T07:01:02.618Z,7.35
2023-05-08T07:03:29.939Z,6.72
2023-05-08T07:05:57.335Z,7.25
2023-05-08T07:08:24.682Z,8.13
2023-05-08T07:10:52.424Z,7.82
2023-05-08T07:13:22.405Z,8.00
2023-05-08T07:15:49.948Z,7.15
2023-05-08T07:18:17.349Z,7.18
2023-05-08T07:20:44.722Z,7.68
2023-05-08T07:23:12.083Z,7.55
2023-05-08T07:25:39.668Z,7.15
2023-05-08T07:28:08.163Z,7.10
2023-05-08T07:30:36.193Z,7.00
2023-05-08T07:33:04.093Z,6.60
2023-05-08T07:35:31.525Z,7.30
2023-05-08T07:37:58.929Z,7.18
2023-05-08T07:40:26.306Z,6.97
2023-05-08T07:42:53.769Z,6.90
2023-05-08T07:45:21.205Z,7.35
2023-05-08T07:47:52.318Z,7.68
2023-05-08T07:50:22.343Z,6.65
2023-05-08T07:52:50.462Z,6.45
2023-05-08T07:55:18.423Z,6.45
2023-05-08T07:57:46.051Z,5.80
2023-05-08T08:00:15.167Z,6.22
2023-05-08T08:02:43.499Z,7.05
2023-05-08T08:05:11.718Z,6.60
2023-05-08T08:07:39.462Z,6.57
2023-05-08T08:10:07.875Z,5.50
2023-05-08T08:12:35.383Z,5.88
2023-05-08T08:15:03.143Z,5.80
2023-05-08T08:17:30.632Z,6.20
2023-05-08T08:19:58.093Z,6.88
2023-05-08T08:22:26.156Z,7.75
2023-05-08T08:24:55.932Z,6.93
2023-05-08T08:27:23.491Z,7.57
2023-05-08T08:29:52.586Z,7.30
2023-05-08T08:32:26.079Z,6.20
2023-05-08T08:34:53.382Z,7.25
2023-05-08T08:37:20.731Z,6.90
2023-05-08T08:39:50.781Z,6.45
2023-05-08T08:42:18.094Z,6.43
2023-05-08T08:44:45.633Z,5.95
2023-05-08T08:47:15.217Z,6.45
2023-05-08T08:49:49.307Z,7.15
2023-05-08T08:52:37.182Z,5.85
2023-05-08T08:55:09.819Z,7.53
2023-05-08T08:57:42.448Z,6.63
2023-05-08T09:00:12.127Z,7.07
2023-05-08T09:02:39.635Z,6.97
2023-05-08T09:05:07.929Z,6.68
2023-05-08T09:07:35.724Z,6.65
2023-05-08T09:10:07.499Z,6.63
2023-05-08T09:12:34.781Z,7.15
2023-05-08T09:15:02.122Z,7.00
2023-05-08T09:17:29.401Z,6.75
2023-05-08T09:19:56.968Z,6.93
2023-05-08T09:22:26.179Z,7.05
2023-05-08T09:25:00.832Z,7.13
2023-05-08T09:27:33.327Z,7.38
2023-05-08T09:30:07.830Z,6.28
2023-05-08T09:32:36.932Z,6.20
2023-05-08T09:35:06.688Z,6.85
2023-05-08T09:37:36.992Z,6.35
2023-05-08T09:40:20.937Z,7.03
2023-05-08T09:42:50.146Z,6.50
2023-05-08T09:45:32.246Z,6.00
2023-05-08T09:47:59.657Z,5.78
2023-05-08T09:50:27.770Z,6.22
2023-05-08T09:52:55.438Z,6.30
2023-05-08T09:55:22.693Z,6.47
2023-05-08T09:57:58.642Z,5.53
2023-05-08T10:00:29.353Z,6.53
2023-05-08T10:03:00.536Z,7.05
2023-05-08T10:05:32.952Z,6.70
2023-05-08T10:08:19.892Z,8.15
2023-05-08T10:10:47.391Z,7.38
2023-05-08T10:13:14.933Z,7.45
2023-05-08T10:15:43.966Z,7.38
2023-05-08T10:18:12.170Z,6.95
2023-05-08T10:23:19.850Z,6.95
2023-05-08T10:25:54.148Z,6.93
2023-05-08T10:28:43.149Z,7.32
2023-05-08T10:31:16.117Z,7.13
2023-05-08T10:33:48.429Z,7.13
2023-05-08T10:36:16.466Z,6.55
2023-05-08T10:38:44.587Z,6.72
2023-05-08T10:41:12.253Z,6.28
2023-05-08T10:43:43.014Z,6.47
2023-05-08T10:46:48.925Z,6.75
2023-05-08T10:49:41.613Z,7.07
2023-05-08T10:52:28.246Z,5.75
2023-05-08T10:55:04.671Z,6.80
2023-05-08T10:57:32.256Z,7.32
2023-05-08T10:59:59.687Z,6.55
2023-05-08T11:02:29.936Z,7.15
2023-05-08T11:05:16.931Z,7.03
2023-05-08T11:07:57.294Z,7.30
2023-05-08T11:10:32.083Z,7.05
2023-05-08T11:13:01.246Z,7.20
2023-05-08T11:15:41.967Z,6.75
2023-05-08T11:18:11.651Z,6.82
2023-05-08T11:20:58.864Z,7.00
2023-05-08T11:23:34.616Z,7.05
2023-05-08T11:26:13.780Z,6.38
2023-05-08T11:28:56.631Z,6.63
2023-05-08T11:31:24.364Z,7.40
2023-05-08T11:33:51.708Z,7.85
2023-05-08T11:36:22.317Z,7.25
2023-05-08T11:39:22.481Z,7.28
2023-05-08T11:41:49.673Z,6.97
2023-05-08T11:44:21.094Z,8.35
2023-05-08T11:46:56.195Z,7.30
2023-05-08T11:49:29.007Z,7.22
2023-05-08T11:51:59.024Z,6.63
2023-05-08T11:54:30.441Z,6.97
2023-05-08T11:56:59.431Z,6.90
2023-05-08T11:59:26.802Z,6.28
2023-05-08T12:02:06.923Z,7.90
2023-05-08T12:04:44.751Z,7.05
2023-05-08T12:07:12.177Z,7.43
2023-05-08T12:09:39.654Z,6.38
2023-05-08T12:12:07.340Z,5.93
2023-05-08T12:14:34.919Z,6.47
2023-05-08T12:17:02.842Z,5.68
2023-05-08T12:19:30.215Z,6.15
2023-05-08T12:21:58.210Z,5.90
2023-05-08T12:24:26.771Z,5.50
2023-05-08T12:26:55.917Z,5.80
2023-05-08T12:29:23.667Z,5.40
2023-05-08T12:31:51.603Z,7.65
2023-05-08T12:34:19.571Z,6.72
2023-05-08T12:36:46.821Z,7.22
2023-05-08T12:39:16.831Z,6.95
2023-05-08T12:41:48.737Z,6.97
2023-05-08T12:44:26.357Z,6.03
2023-05-08T12:46:56.074Z,5.55
2023-05-08T12:49:31.294Z,5.28
2023-05-08T12:52:06.676Z,5.45
2023-05-08T12:54:36.119Z,5.18
2023-05-08T12:57:19.190Z,5.00
2023-05-08T12:59:47.018Z,5.55
2023-05-08T13:02:19.518Z,4.28
2023-05-08T13:04:47.335Z,4.72
2023-05-08T13:07:15.032Z,4.82
2023-05-08T13:09:57.009Z,4.47
2023-05-08T13:12:24.297Z,4.53
2023-05-08T13:14:51.577Z,4.55
2023-05-08T13:17:19.089Z,5.38
2023-05-08T13:19:46.427Z,5.47
2023-05-08T13:22:13.677Z,5.53
2023-05-08T13:24:41.049Z,6.15
2023-05-08T13:27:08.441Z,5.57
2023-05-08T13:29:35.672Z,5.90
2023-05-08T13:32:02.957Z,6.38
2023-05-08T13:34:30.268Z,7.43
2023-05-08T13:36:58.088Z,6.78
2023-05-08T13:39:25.414Z,7.15
2023-05-08T13:41:52.722Z,6.55
2023-05-08T13:44:19.975Z,6.32
2023-05-08T13:46:48.014Z,6.50
2023-05-08T13:49:15.306Z,6.60
2023-05-08T13:51:43.914Z,6.22
2023-05-08T13:54:14.350Z,6.40
2023-05-08T13:56:41.607Z,6.95
2023-05-08T13:59:08.867Z,6.45
2023-05-08T14:01:36.209Z,6.55
2023-05-08T14:04:03.744Z,6.57
2023-05-08T14:06:31.298Z,6.20
2023-05-08T14:08:58.631Z,6.13
2023-05-08T14:11:25.947Z,6.38
2023-05-08T14:13:53.467Z,6.68
2023-05-08T14:16:20.953Z,6.47
2023-05-08T14:18:48.420Z,6.70
2023-05-08T14:21:16.074Z,6.15
2023-05-08T14:23:44.620Z,5.50
2023-05-08T14:26:11.965Z,5.20
2023-05-08T14:28:39.259Z,4.45
2023-05-08T14:31:06.598Z,4.53
2023-05-08T14:33:33.912Z,4.53
2023-05-08T14:36:01.110Z,4.05
2023-05-08T14:38:28.342Z,4.60
2023-05-08T14:40:55.615Z,4.40
2023-05-08T14:43:23.312Z,3.78
2023-05-08T14:45:50.839Z,4.57
2023-05-08T14:48:18.124Z,3.97
2023-05-08T14:50:45.644Z,4.10
2023-05-08T14:53:12.978Z,4.40
2023-05-08T14:55:40.592Z,4.85
2023-05-08T14:58:07.954Z,3.70
2023-05-08T15:00:35.207Z,4.90
2023-05-08T15:03:02.790Z,5.35
2023-05-08T15:05:30.176Z,4.50
2023-05-08T15:07:58.785Z,4.28
2023-05-08T15:10:26.365Z,4.50
2023-05-08T15:12:53.680Z,4.82
2023-05-08T15:15:21.100Z,4.32
2023-05-08T15:17:48.369Z,4.80
2023-05-08T15:20:15.751Z,4.72
2023-05-08T15:22:43.025Z,4.40
2023-05-08T15:25:10.544Z,4.80
2023-05-08T15:27:37.796Z,4.50
2023-05-08T15:30:06.070Z,5.20
2023-05-08T15:32:33.376Z,4.75
2023-05-08T15:35:01.237Z,4.38
2023-05-08T15:37:28.485Z,4.85
2023-05-08T15:39:56.440Z,5.32
2023-05-08T15:42:23.751Z,5.53
2023-05-08T15:44:56.284Z,4.32
2023-05-08T15:47:24.643Z,5.50
2023-05-08T15:49:51.838Z,4.90
2023-05-08T15:52:19.883Z,4.95
2023-05-08T15:54:47.653Z,4.68
2023-05-08T15:57:15.281Z,5.28
2023-05-08T15:59:42.658Z,4.75
2023-05-08T16:02:10.194Z,5.28
2023-05-08T16:04:37.572Z,5.35
2023-05-08T16:07:04.821Z,5.60
2023-05-08T16:09:33.147Z,5.50
2023-05-08T16:12:00.383Z,6.00
2023-05-08T16:14:27.620Z,5.47
2023-05-08T16:16:54.829Z,5.82
2023-05-08T16:19:22.328Z,5.07
2023-05-08T16:21:49.683Z,5.70
2023-05-08T16:24:16.958Z,7.30
2023-05-08T16:26:44.231Z,6.13
2023-05-08T16:29:11.574Z,5.75
2023-05-08T16:31:40.466Z,6.13
2023-05-08T16:34:10.828Z,6.55
2023-05-08T16:36:38.244Z,5.78
2023-05-08T16:39:05.872Z,7.15
2023-05-08T16:41:33.178Z,5.80
2023-05-08T16:44:00.462Z,5.38
2023-05-08T16:46:30.459Z,5.35
2023-05-08T16:48:58.228Z,5.53
2023-05-08T16:51:25.568Z,5.63
2023-05-08T16:53:52.894Z,6.22
2023-05-08T16:56:22.582Z,6.18
2023-05-08T16:58:49.912Z,5.38
2023-05-08T17:01:17.274Z,5.80
2023-05-08T17:03:44.622Z,6.75
2023-05-08T17:06:11.915Z,5.80
2023-05-08T17:08:39.263Z,6.38
2023-05-08T17:11:06.519Z,6.22
2023-05-08T17:13:33.714Z,5.55
2023-05-08T17:16:02.339Z,5.93
2023-05-08T17:18:30.841Z,5.90
2023-05-08T17:20:58.078Z,5.70
2023-05-08T17:23:25.258Z,5.20
2023-05-08T17:25:59.356Z,5.47
2023-05-08T17:28:26.751Z,6.13
2023-05-08T17:30:55.115Z,5.68
2023-05-08T17:33:22.689Z,4.90
2023-05-08T17:35:50.056Z,4.53
2023-05-08T17:38:17.603Z,5.47
2023-05-08T17:40:44.844Z,5.72
2023-05-08T17:43:12.304Z,4.75
2023-05-08T17:45:39.719Z,5.57
2023-05-08T17:48:07.187Z,5.20
2023-05-08T17:50:35.119Z,6.07
2023-05-08T17:53:02.361Z,5.28
2023-05-08T17:55:31.676Z,5.45
2023-05-08T17:57:59.094Z,5.30
2023-05-08T18:00:26.557Z,5.10
2023-05-08T18:02:53.975Z,5.47
2023-05-08T18:05:21.593Z,5.78
2023-05-08T18:07:48.999Z,5.68
2023-05-08T18:10:16.663Z,5.97
2023-05-08T18:12:44.024Z,5.10
2023-05-08T18:15:11.563Z,5.53
2023-05-08T18:17:38.951Z,5.38
2023-05-08T18:20:07.921Z,5.32
2023-05-08T18:22:35.677Z,5.30
2023-05-08T18:25:03.821Z,5.28
2023-05-08T18:27:34.331Z,5.80
2023-05-08T18:30:01.915Z,5.68
2023-05-08T18:32:29.428Z,5.28
2023-05-08T18:34:57.248Z,5.35
2023-05-08T18:37:24.913Z,4.97
2023-05-08T18:39:52.528Z,5.75
2023-05-08T18:42:19.738Z,5.25
2023-05-08T18:44:46.998Z,6.13
2023-05-08T18:47:14.327Z,5.45
2023-05-08T18:49:41.676Z,5.00
2023-05-08T18:52:09.000Z,6.05
2023-05-08T18:54:36.410Z,5.50
2023-05-08T18:57:03.943Z,5.30
2023-05-08T18:59:31.293Z,5.50
2023-05-08T19:01:58.735Z,5.57
2023-05-08T19:04:26.161Z,5.72
2023-05-08T19:06:53.936Z,5.95
2023-05-08T19:09:21.270Z,5.30
2023-05-08T19:11:48.781Z,5.85
2023-05-08T19:14:16.148Z,5.57
2023-05-08T19:16:43.372Z,5.15
2023-05-08T19:19:10.738Z,5.50
2023-05-08T19:21:37.990Z,5.05
2023-05-08T19:24:05.728Z,5.65
2023-05-08T19:26:33.099Z,5.32
2023-05-08T19:29:00.485Z,14.90
2023-05-08T19:31:28.036Z,18.17
2023-05-08T19:33:57.492Z,5.00
2023-05-08T19:36:24.866Z,5.70
2023-05-08T19:38:52.158Z,5.22
2023-05-08T19:41:19.381Z,4.68
2023-05-08T19:43:46.641Z,5.22
2023-05-08T19:46:13.839Z,4.70
2023-05-08T19:48:41.184Z,5.50
2023-05-08T19:51:09.427Z,5.55
2023-05-08T19:53:36.905Z,5.65
2023-05-08T19:56:04.175Z,5.32
2023-05-08T19:58:31.931Z,4.97
2023-05-08T20:00:59.180Z,5.45
2023-05-08T20:03:26.788Z,5.38
2023-05-08T20:05:54.545Z,6.28
2023-05-08T20:08:22.035Z,5.90
2023-05-08T20:10:49.467Z,6.15
2023-05-08T20:13:17.572Z,6.15
2023-05-08T20:15:45.254Z,6.40
2023-05-08T20:18:12.871Z,6.72
2023-05-08T20:20:40.303Z,5.50
2023-05-08T20:23:07.883Z,5.70
2023-05-08T20:25:35.216Z,5.28
2023-05-08T20:28:02.572Z,5.72
2023-05-08T20:30:30.081Z,4.57
2023-05-08T20:33:02.091Z,5.80
2023-05-08T20:35:29.480Z,5.60
2023-05-08T20:37:57.037Z,5.25
2023-05-08T20:40:27.017Z,5.65
2023-05-08T20:42:54.390Z,6.43
2023-05-08T20:45:21.715Z,7.05
2023-05-08T20:47:49.038Z,7.75
2023-05-08T20:50:16.701Z,6.43
2023-05-08T20:52:44.279Z,5.80
2023-05-08T20:55:11.592Z,5.80
2023-05-08T20:57:39.172Z,5.68
2023-05-08T21:00:08.462Z,6.43
2023-05-08T21:02:38.825Z,6.20
2023-05-08T21:05:07.058Z,5.65
2023-05-08T21:07:35.379Z,6.40
2023-05-08T21:10:02.802Z,6.10
2023-05-08T21:12:30.262Z,6.88
2023-05-08T21:14:57.573Z,6.07
2023-05-08T21:17:25.181Z,5.53
2023-05-08T21:19:52.637Z,5.63
2023-05-08T21:22:19.978Z,6.82
2023-05-08T21:24:47.377Z,6.68
2023-05-08T21:27:14.862Z,6.57
2023-05-08T21:29:42.110Z,6.82
2023-05-08T21:32:10.401Z,7.22
2023-05-08T21:34:38.067Z,6.28
2023-05-08T21:37:05.460Z,6.68
2023-05-08T21:39:32.933Z,7.47
2023-05-08T21:42:00.314Z,6.38
2023-05-08T21:44:27.600Z,6.47
2023-05-08T21:46:57.311Z,6.05
2023-05-08T21:49:24.622Z,6.57
2023-05-08T21:51:53.076Z,7.07
2023-05-08T21:54:23.191Z,6.93
2023-05-08T21:56:51.290Z,6.45
2023-05-08T21:59:19.061Z,6.05
2023-05-08T22:01:46.386Z,7.45
2023-05-08T22:04:13.787Z,7.22
2023-05-08T22:06:43.300Z,6.38
2023-05-08T22:09:10.832Z,6.18
2023-05-08T22:11:38.260Z,7.15
2023-05-08T22:14:05.833Z,6.47
2023-05-08T22:16:33.336Z,6.70
2023-05-08T22:19:00.782Z,7.65
2023-05-08T22:21:30.175Z,7.20
2023-05-08T22:23:57.512Z,6.63
2023-05-08T22:26:24.983Z,6.90
2023-05-08T22:28:52.614Z,6.32
2023-05-08T22:31:20.392Z,6.75
2023-05-08T22:33:48.058Z,6.65
2023-05-08T22:36:15.836Z,8.20
2023-05-08T22:38:43.047Z,7.80
2023-05-08T22:41:10.597Z,6.78
2023-05-08T22:43:37.966Z,7.47
2023-05-08T22:46:06.078Z,8.13
2023-05-08T22:48:33.939Z,7.07
2023-05-08T22:51:01.259Z,6.97
2023-05-08T22:53:28.527Z,7.18
2023-05-08T22:55:55.870Z,7.18
2023-05-08T22:58:25.145Z,6.82
2023-05-08T23:00:52.579Z,6.82
2023-05-08T23:03:20.220Z,8.85
2023-05-08T23:05:48.764Z,7.97
2023-05-08T23:08:16.044Z,8.18
2023-05-08T23:10:43.901Z,7.78
2023-05-08T23:13:14.151Z,7.13
2023-05-08T23:15:41.408Z,7.15
2023-05-08T23:18:08.769Z,7.25
2023-05-08T23:20:35.981Z,8.07
2023-05-08T23:23:03.249Z,8.32
2023-05-08T23:25:30.597Z,7.78
2023-05-08T23:27:57.863Z,7.97
2023-05-08T23:30:25.159Z,7.90
2023-05-08T23:32:52.388Z,8.00
2023-05-08T23:35:19.871Z,7.20
2023-05-08T23:37:47.161Z,8.35
2023-05-08T23:40:14.478Z,8.90
2023-05-08T23:42:41.710Z,7.90
2023-05-08T23:45:09.551Z,7.47
2023-05-08T23:47:36.844Z,8.38
2023-05-08T23:50:04.547Z,8.32
2023-05-08T23:52:32.362Z,8.80
2023-05-08T23:54:59.659Z,9.30
2023-05-08T23:57:26.864Z,8.40
2023-05-08T23:59:54.148Z,8.13
